Aviation Digital Data Service (ADDS)

Output produced by METARs form (1713 UTC 21 September 2019)
found at http://aviationweather.gov/metar/data/
 
KDFW 211653Z 17012G21KT 10SM SCT030 BKN050 BKN250 30/22 A3006 RMK AO2 SLP169 T03000217 $
KDFW 211507Z 2115/2218 16014KT P6SM BKN015 BKN035 
     FM211700 17016KT P6SM BKN060 
     FM221200 18012KT P6SM BKN025 
     FM221500 19012KT P6SM BKN050